sensor_id;sensor_type;location;lat;lon;timestamp;P1;durP1;ratioP1;P2;durP2;ratioP2
49384;SDS011;36795;45.028;38.968;2023-07-08T00:00:17;14.90;;;4.12;;
49384;SDS011;36795;45.028;38.968;2023-07-08T00:03:05;18.15;;;4.93;;
49384;SDS011;36795;45.028;38.968;2023-07-08T00:05:52;17.25;;;5.22;;
49384;SDS011;36795;45.028;38.968;2023-07-08T00:08:41;16.92;;;5.50;;
49384;SDS011;36795;45.028;38.968;2023-07-08T00:11:27;18.98;;;6.10;;
49384;SDS011;36795;45.028;38.968;2023-07-08T00:14:14;18.15;;;6.00;;
49384;SDS011;36795;45.028;38.968;2023-07-08T00:17:00;22.33;;;6.32;;
49384;SDS011;36795;45.028;38.968;2023-07-08T00:19:46;16.48;;;5.95;;
49384;SDS011;36795;45.028;38.968;2023-07-08T00:22:32;17.75;;;5.55;;
49384;SDS011;36795;45.028;38.968;2023-07-08T00:25:19;19.42;;;5.65;;
49384;SDS011;36795;45.028;38.968;2023-07-08T00:28:38;17.42;;;5.18;;
49384;SDS011;36795;45.028;38.968;2023-07-08T00:31:17;16.65;;;5.57;;
49384;SDS011;36795;45.028;38.968;2023-07-08T00:34:08;16.62;;;5.37;;
49384;SDS011;36795;45.028;38.968;2023-07-08T00:36:54;14.20;;;5.03;;
49384;SDS011;36795;45.028;38.968;2023-07-08T00:39:39;15.57;;;5.00;;
49384;SDS011;36795;45.028;38.968;2023-07-08T00:42:26;16.17;;;4.47;;
49384;SDS011;36795;45.028;38.968;2023-07-08T00:45:47;18.90;;;5.15;;
49384;SDS011;36795;45.028;38.968;2023-07-08T00:48:32;14.25;;;4.60;;
49384;SDS011;36795;45.028;38.968;2023-07-08T00:51:19;19.95;;;5.47;;
49384;SDS011;36795;45.028;38.968;2023-07-08T00:54:11;17.92;;;5.62;;
49384;SDS011;36795;45.028;38.968;2023-07-08T00:59:53;16.95;;;5.55;;
49384;SDS011;36795;45.028;38.968;2023-07-08T01:03:00;21.08;;;6.28;;
49384;SDS011;36795;45.028;38.968;2023-07-08T01:05:49;21.35;;;6.43;;
49384;SDS011;36795;45.028;38.968;2023-07-08T01:08:36;22.75;;;6.78;;
49384;SDS011;36795;45.028;38.968;2023-07-08T01:11:23;21.87;;;6.80;;
49384;SDS011;36795;45.028;38.968;2023-07-08T01:14:09;19.90;;;6.35;;
49384;SDS011;36795;45.028;38.968;2023-07-08T01:16:59;22.45;;;6.90;;
49384;SDS011;36795;45.028;38.968;2023-07-08T01:19:45;16.00;;;5.72;;
49384;SDS011;36795;45.028;38.968;2023-07-08T01:22:34;20.98;;;7.10;;
49384;SDS011;36795;45.028;38.968;2023-07-08T01:25:21;22.10;;;7.00;;
49384;SDS011;36795;45.028;38.968;2023-07-08T01:28:07;20.45;;;6.90;;
49384;SDS011;36795;45.028;38.968;2023-07-08T01:30:53;22.87;;;7.47;;
49384;SDS011;36795;45.028;38.968;2023-07-08T01:33:40;16.95;;;6.32;;
49384;SDS011;36795;45.028;38.968;2023-07-08T01:36:26;17.17;;;6.00;;
49384;SDS011;36795;45.028;38.968;2023-07-08T01:39:17;19.30;;;6.93;;
49384;SDS011;36795;45.028;38.968;2023-07-08T01:42:06;17.00;;;6.32;;
49384;SDS011;36795;45.028;38.968;2023-07-08T01:44:52;17.58;;;6.45;;
49384;SDS011;36795;45.028;38.968;2023-07-08T01:47:38;17.08;;;5.75;;
49384;SDS011;36795;45.028;38.968;2023-07-08T01:50:26;18.80;;;6.18;;
49384;SDS011;36795;45.028;38.968;2023-07-08T01:53:18;16.80;;;5.25;;
49384;SDS011;36795;45.028;38.968;2023-07-08T01:56:09;15.73;;;5.40;;
49384;SDS011;36795;45.028;38.968;2023-07-08T01:58:56;15.68;;;5.35;;
49384;SDS011;36795;45.028;38.968;2023-07-08T02:01:42;15.57;;;5.70;;
49384;SDS011;36795;45.028;38.968;2023-07-08T02:04:28;17.75;;;6.37;;
49384;SDS011;36795;45.028;38.968;2023-07-08T02:07:15;19.48;;;6.10;;
49384;SDS011;36795;45.028;38.968;2023-07-08T02:10:01;19.45;;;6.45;;
49384;SDS011;36795;45.028;38.968;2023-07-08T02:12:47;17.30;;;6.37;;
49384;SDS011;36795;45.028;38.968;2023-07-08T02:15:33;18.90;;;6.82;;
49384;SDS011;36795;45.028;38.968;2023-07-08T02:18:19;17.80;;;6.65;;
49384;SDS011;36795;45.028;38.968;2023-07-08T02:21:06;17.95;;;6.25;;
49384;SDS011;36795;45.028;38.968;2023-07-08T02:23:52;19.92;;;7.43;;
49384;SDS011;36795;45.028;38.968;2023-07-08T02:26:38;21.00;;;6.70;;
49384;SDS011;36795;45.028;38.968;2023-07-08T02:29:25;19.75;;;6.87;;
49384;SDS011;36795;45.028;38.968;2023-07-08T02:32:14;20.92;;;7.12;;
49384;SDS011;36795;45.028;38.968;2023-07-08T02:35:00;20.60;;;7.18;;
49384;SDS011;36795;45.028;38.968;2023-07-08T02:37:48;20.55;;;6.72;;
49384;SDS011;36795;45.028;38.968;2023-07-08T02:40:34;19.58;;;6.97;;
49384;SDS011;36795;45.028;38.968;2023-07-08T02:43:21;20.83;;;6.97;;
49384;SDS011;36795;45.028;38.968;2023-07-08T02:46:07;21.40;;;6.45;;
49384;SDS011;36795;45.028;38.968;2023-07-08T02:48:52;19.20;;;6.65;;
49384;SDS011;36795;45.028;38.968;2023-07-08T02:51:38;18.65;;;6.53;;
49384;SDS011;36795;45.028;38.968;2023-07-08T02:54:24;19.12;;;6.97;;
49384;SDS011;36795;45.028;38.968;2023-07-08T02:57:10;18.48;;;6.22;;
49384;SDS011;36795;45.028;38.968;2023-07-08T02:59:56;18.45;;;6.32;;
49384;SDS011;36795;45.028;38.968;2023-07-08T03:02:42;20.77;;;6.72;;
49384;SDS011;36795;45.028;38.968;2023-07-08T03:05:29;19.08;;;6.72;;
49384;SDS011;36795;45.028;38.968;2023-07-08T03:08:15;21.33;;;6.12;;
49384;SDS011;36795;45.028;38.968;2023-07-08T03:11:02;19.42;;;6.05;;
49384;SDS011;36795;45.028;38.968;2023-07-08T03:13:50;19.08;;;5.97;;
49384;SDS011;36795;45.028;38.968;2023-07-08T03:16:36;19.10;;;5.95;;
49384;SDS011;36795;45.028;38.968;2023-07-08T03:19:22;18.08;;;6.10;;
49384;SDS011;36795;45.028;38.968;2023-07-08T03:22:10;18.48;;;5.93;;
49384;SDS011;36795;45.028;38.968;2023-07-08T03:24:56;15.90;;;5.70;;
49384;SDS011;36795;45.028;38.968;2023-07-08T03:27:42;19.02;;;6.00;;
49384;SDS011;36795;45.028;38.968;2023-07-08T03:30:29;19.62;;;5.87;;
49384;SDS011;36795;45.028;38.968;2023-07-08T03:33:16;17.87;;;6.10;;
49384;SDS011;36795;45.028;38.968;2023-07-08T03:36:02;19.62;;;5.57;;
49384;SDS011;36795;45.028;38.968;2023-07-08T03:38:51;18.45;;;5.93;;
49384;SDS011;36795;45.028;38.968;2023-07-08T03:41:37;18.00;;;5.87;;
49384;SDS011;36795;45.028;38.968;2023-07-08T03:44:24;19.25;;;5.70;;
49384;SDS011;36795;45.028;38.968;2023-07-08T03:47:09;18.15;;;5.60;;
49384;SDS011;36795;45.028;38.968;2023-07-08T03:49:55;19.65;;;5.90;;
49384;SDS011;36795;45.028;38.968;2023-07-08T03:52:41;19.80;;;5.62;;
49384;SDS011;36795;45.028;38.968;2023-07-08T03:55:27;15.90;;;5.65;;
49384;SDS011;36795;45.028;38.968;2023-07-08T03:58:14;22.87;;;5.47;;
49384;SDS011;36795;45.028;38.968;2023-07-08T04:01:00;16.75;;;4.90;;
49384;SDS011;36795;45.028;38.968;2023-07-08T04:03:46;18.95;;;4.97;;
49384;SDS011;36795;45.028;38.968;2023-07-08T04:06:32;18.95;;;5.35;;
49384;SDS011;36795;45.028;38.968;2023-07-08T04:09:19;18.02;;;5.18;;
49384;SDS011;36795;45.028;38.968;2023-07-08T04:12:05;20.58;;;6.03;;
49384;SDS011;36795;45.028;38.968;2023-07-08T04:14:53;17.87;;;5.20;;
49384;SDS011;36795;45.028;38.968;2023-07-08T04:17:43;17.35;;;5.47;;
49384;SDS011;36795;45.028;38.968;2023-07-08T04:20:31;20.85;;;5.50;;
49384;SDS011;36795;45.028;38.968;2023-07-08T04:23:18;22.30;;;6.05;;
49384;SDS011;36795;45.028;38.968;2023-07-08T04:26:08;24.35;;;6.25;;
49384;SDS011;36795;45.028;38.968;2023-07-08T04:28:54;23.10;;;6.60;;
49384;SDS011;36795;45.028;38.968;2023-07-08T04:31:40;20.45;;;5.70;;
49384;SDS011;36795;45.028;38.968;2023-07-08T04:34:26;22.55;;;5.75;;
49384;SDS011;36795;45.028;38.968;2023-07-08T04:37:13;20.75;;;5.87;;
49384;SDS011;36795;45.028;38.968;2023-07-08T04:39:59;19.90;;;6.05;;
49384;SDS011;36795;45.028;38.968;2023-07-08T04:42:46;18.10;;;5.45;;
49384;SDS011;36795;45.028;38.968;2023-07-08T04:45:32;21.27;;;5.72;;
49384;SDS011;36795;45.028;38.968;2023-07-08T04:48:20;21.62;;;6.65;;
49384;SDS011;36795;45.028;38.968;2023-07-08T04:51:07;24.90;;;6.57;;
49384;SDS011;36795;45.028;38.968;2023-07-08T04:53:54;20.17;;;5.78;;
49384;SDS011;36795;45.028;38.968;2023-07-08T04:56:41;21.27;;;5.15;;
49384;SDS011;36795;45.028;38.968;2023-07-08T04:59:29;21.25;;;6.05;;
49384;SDS011;36795;45.028;38.968;2023-07-08T05:02:19;27.13;;;6.10;;
49384;SDS011;36795;45.028;38.968;2023-07-08T05:05:05;16.95;;;5.12;;
49384;SDS011;36795;45.028;38.968;2023-07-08T05:07:51;18.50;;;5.50;;
49384;SDS011;36795;45.028;38.968;2023-07-08T05:10:38;21.65;;;5.85;;
49384;SDS011;36795;45.028;38.968;2023-07-08T05:13:24;25.27;;;6.03;;
49384;SDS011;36795;45.028;38.968;2023-07-08T05:16:10;19.12;;;5.97;;
49384;SDS011;36795;45.028;38.968;2023-07-08T05:18:56;24.33;;;5.45;;
49384;SDS011;36795;45.028;38.968;2023-07-08T05:21:42;20.55;;;5.72;;
49384;SDS011;36795;45.028;38.968;2023-07-08T05:24:30;16.52;;;5.55;;
49384;SDS011;36795;45.028;38.968;2023-07-08T05:27:16;22.62;;;6.70;;
49384;SDS011;36795;45.028;38.968;2023-07-08T05:30:02;21.25;;;5.80;;
49384;SDS011;36795;45.028;38.968;2023-07-08T05:32:50;30.08;;;6.68;;
49384;SDS011;36795;45.028;38.968;2023-07-08T05:35:35;18.67;;;5.53;;
49384;SDS011;36795;45.028;38.968;2023-07-08T05:38:24;18.45;;;5.18;;
49384;SDS011;36795;45.028;38.968;2023-07-08T05:41:11;21.27;;;5.95;;
49384;SDS011;36795;45.028;38.968;2023-07-08T05:43:58;19.55;;;5.15;;
49384;SDS011;36795;45.028;38.968;2023-07-08T05:46:44;18.12;;;5.90;;
49384;SDS011;36795;45.028;38.968;2023-07-08T05:49:30;21.83;;;4.95;;
49384;SDS011;36795;45.028;38.968;2023-07-08T05:52:16;21.40;;;6.15;;
49384;SDS011;36795;45.028;38.968;2023-07-08T05:55:04;16.87;;;4.97;;
49384;SDS011;36795;45.028;38.968;2023-07-08T05:57:50;18.67;;;4.90;;
49384;SDS011;36795;45.028;38.968;2023-07-08T06:00:36;18.45;;;5.50;;
49384;SDS011;36795;45.028;38.968;2023-07-08T06:03:23;18.42;;;5.30;;
49384;SDS011;36795;45.028;38.968;2023-07-08T06:06:09;14.60;;;4.80;;
49384;SDS011;36795;45.028;38.968;2023-07-08T06:08:55;17.95;;;5.32;;
49384;SDS011;36795;45.028;38.968;2023-07-08T06:11:41;19.95;;;5.22;;
49384;SDS011;36795;45.028;38.968;2023-07-08T06:14:27;15.15;;;5.15;;
49384;SDS011;36795;45.028;38.968;2023-07-08T06:17:14;14.98;;;4.50;;
49384;SDS011;36795;45.028;38.968;2023-07-08T06:20:00;18.85;;;5.43;;
49384;SDS011;36795;45.028;38.968;2023-07-08T06:22:46;15.13;;;5.05;;
49384;SDS011;36795;45.028;38.968;2023-07-08T06:25:33;18.15;;;5.37;;
49384;SDS011;36795;45.028;38.968;2023-07-08T06:28:18;16.87;;;5.22;;
49384;SDS011;36795;45.028;38.968;2023-07-08T06:31:05;18.40;;;5.35;;
49384;SDS011;36795;45.028;38.968;2023-07-08T06:33:51;18.35;;;5.35;;
49384;SDS011;36795;45.028;38.968;2023-07-08T06:36:37;21.50;;;5.30;;
49384;SDS011;36795;45.028;38.968;2023-07-08T06:39:22;15.05;;;4.95;;
49384;SDS011;36795;45.028;38.968;2023-07-08T06:42:09;18.77;;;5.25;;
49384;SDS011;36795;45.028;38.968;2023-07-08T06:44:58;16.10;;;5.03;;
49384;SDS011;36795;45.028;38.968;2023-07-08T06:47:44;17.40;;;5.65;;
49384;SDS011;36795;45.028;38.968;2023-07-08T06:50:30;15.48;;;5.43;;
49384;SDS011;36795;45.028;38.968;2023-07-08T06:53:17;15.45;;;5.60;;
49384;SDS011;36795;45.028;38.968;2023-07-08T06:56:03;13.57;;;4.60;;
49384;SDS011;36795;45.028;38.968;2023-07-08T06:58:49;17.90;;;5.12;;
49384;SDS011;36795;45.028;38.968;2023-07-08T07:01:35;17.35;;;5.30;;
49384;SDS011;36795;45.028;38.968;2023-07-08T07:04:24;18.60;;;5.05;;
49384;SDS011;36795;45.028;38.968;2023-07-08T07:07:10;13.88;;;5.07;;
49384;SDS011;36795;45.028;38.968;2023-07-08T07:09:57;15.98;;;4.95;;
49384;SDS011;36795;45.028;38.968;2023-07-08T07:12:42;16.12;;;5.20;;
49384;SDS011;36795;45.028;38.968;2023-07-08T07:15:29;20.65;;;5.72;;
49384;SDS011;36795;45.028;38.968;2023-07-08T07:18:15;18.23;;;5.53;;
49384;SDS011;36795;45.028;38.968;2023-07-08T07:21:01;16.92;;;4.62;;
49384;SDS011;36795;45.028;38.968;2023-07-08T07:23:47;13.35;;;4.62;;
49384;SDS011;36795;45.028;38.968;2023-07-08T07:26:33;16.20;;;5.28;;
49384;SDS011;36795;45.028;38.968;2023-07-08T07:29:22;15.77;;;5.32;;
49384;SDS011;36795;45.028;38.968;2023-07-08T07:32:09;17.45;;;5.15;;
49384;SDS011;36795;45.028;38.968;2023-07-08T07:34:56;14.40;;;5.43;;
49384;SDS011;36795;45.028;38.968;2023-07-08T07:37:43;18.00;;;5.15;;
49384;SDS011;36795;45.028;38.968;2023-07-08T07:40:30;16.35;;;5.22;;
49384;SDS011;36795;45.028;38.968;2023-07-08T07:43:16;14.60;;;5.28;;
49384;SDS011;36795;45.028;38.968;2023-07-08T07:46:02;15.32;;;4.90;;
49384;SDS011;36795;45.028;38.968;2023-07-08T07:48:50;14.23;;;5.07;;
49384;SDS011;36795;45.028;38.968;2023-07-08T07:51:36;17.95;;;5.90;;
49384;SDS011;36795;45.028;38.968;2023-07-08T07:54:23;15.68;;;5.62;;
49384;SDS011;36795;45.028;38.968;2023-07-08T07:57:09;15.18;;;4.80;;
49384;SDS011;36795;45.028;38.968;2023-07-08T07:59:55;15.73;;;5.18;;
49384;SDS011;36795;45.028;38.968;2023-07-08T08:02:41;15.70;;;5.10;;
49384;SDS011;36795;45.028;38.968;2023-07-08T08:05:27;15.85;;;5.20;;
49384;SDS011;36795;45.028;38.968;2023-07-08T08:08:13;16.77;;;5.62;;
49384;SDS011;36795;45.028;38.968;2023-07-08T08:10:59;14.13;;;4.40;;
49384;SDS011;36795;45.028;38.968;2023-07-08T08:13:45;15.15;;;4.45;;
49384;SDS011;36795;45.028;38.968;2023-07-08T08:16:32;14.27;;;3.60;;
49384;SDS011;36795;45.028;38.968;2023-07-08T08:19:17;8.35;;;3.60;;
49384;SDS011;36795;45.028;38.968;2023-07-08T08:22:04;12.52;;;3.70;;
49384;SDS011;36795;45.028;38.968;2023-07-08T08:24:49;11.98;;;3.58;;
49384;SDS011;36795;45.028;38.968;2023-07-08T08:27:36;8.10;;;3.00;;
49384;SDS011;36795;45.028;38.968;2023-07-08T08:30:21;8.45;;;3.15;;
49384;SDS011;36795;45.028;38.968;2023-07-08T08:33:08;13.43;;;3.70;;
49384;SDS011;36795;45.028;38.968;2023-07-08T08:35:53;10.93;;;3.35;;
49384;SDS011;36795;45.028;38.968;2023-07-08T08:38:39;9.77;;;2.85;;
49384;SDS011;36795;45.028;38.968;2023-07-08T08:41:29;10.52;;;3.10;;
49384;SDS011;36795;45.028;38.968;2023-07-08T08:44:17;11.48;;;3.42;;
49384;SDS011;36795;45.028;38.968;2023-07-08T08:47:16;12.55;;;3.67;;
49384;SDS011;36795;45.028;38.968;2023-07-08T08:50:23;11.10;;;3.80;;
49384;SDS011;36795;45.028;38.968;2023-07-08T08:53:22;10.02;;;3.60;;
49384;SDS011;36795;45.028;38.968;2023-07-08T08:59:38;13.05;;;3.97;;
49384;SDS011;36795;45.028;38.968;2023-07-08T09:02:40;14.23;;;4.03;;
49384;SDS011;36795;45.028;38.968;2023-07-08T09:05:35;13.82;;;4.45;;
49384;SDS011;36795;45.028;38.968;2023-07-08T09:08:34;13.20;;;3.90;;
49384;SDS011;36795;45.028;38.968;2023-07-08T09:14:30;13.13;;;3.80;;
49384;SDS011;36795;45.028;38.968;2023-07-08T09:17:22;13.80;;;4.03;;
49384;SDS011;36795;45.028;38.968;2023-07-08T09:20:20;15.45;;;4.53;;
49384;SDS011;36795;45.028;38.968;2023-07-08T09:23:16;14.77;;;4.57;;
49384;SDS011;36795;45.028;38.968;2023-07-08T09:26:13;16.55;;;4.68;;
49384;SDS011;36795;45.028;38.968;2023-07-08T09:29:07;13.23;;;3.90;;
49384;SDS011;36795;45.028;38.968;2023-07-08T09:31:55;15.95;;;4.22;;
49384;SDS011;36795;45.028;38.968;2023-07-08T09:34:49;10.85;;;3.90;;
49384;SDS011;36795;45.028;38.968;2023-07-08T09:37:37;13.95;;;4.10;;
49384;SDS011;36795;45.028;38.968;2023-07-08T09:43:37;15.82;;;4.62;;
49384;SDS011;36795;45.028;38.968;2023-07-08T09:46:23;13.90;;;4.00;;
49384;SDS011;36795;45.028;38.968;2023-07-08T09:49:20;13.20;;;4.18;;
49384;SDS011;36795;45.028;38.968;2023-07-08T09:52:10;16.52;;;4.72;;
49384;SDS011;36795;45.028;38.968;2023-07-08T09:54:58;13.82;;;3.97;;
49384;SDS011;36795;45.028;38.968;2023-07-08T09:57:45;13.93;;;3.67;;
49384;SDS011;36795;45.028;38.968;2023-07-08T10:00:38;12.37;;;3.37;;
49384;SDS011;36795;45.028;38.968;2023-07-08T10:03:27;12.00;;;3.55;;
49384;SDS011;36795;45.028;38.968;2023-07-08T10:06:17;11.57;;;3.30;;
49384;SDS011;36795;45.028;38.968;2023-07-08T10:09:09;13.40;;;4.18;;
49384;SDS011;36795;45.028;38.968;2023-07-08T10:12:03;12.50;;;3.80;;
49384;SDS011;36795;45.028;38.968;2023-07-08T10:14:59;11.93;;;3.65;;
49384;SDS011;36795;45.028;38.968;2023-07-08T10:18:16;11.27;;;4.00;;
49384;SDS011;36795;45.028;38.968;2023-07-08T10:21:08;10.73;;;3.72;;
49384;SDS011;36795;45.028;38.968;2023-07-08T10:30:30;11.45;;;3.97;;
49384;SDS011;36795;45.028;38.968;2023-07-08T10:42:43;13.80;;;3.72;;
49384;SDS011;36795;45.028;38.968;2023-07-08T10:45:52;14.52;;;3.40;;
49384;SDS011;36795;45.028;38.968;2023-07-08T10:52:19;13.13;;;3.53;;
49384;SDS011;36795;45.028;38.968;2023-07-08T10:55:31;13.38;;;3.83;;
49384;SDS011;36795;45.028;38.968;2023-07-08T10:58:36;18.73;;;3.10;;
49384;SDS011;36795;45.028;38.968;2023-07-08T11:04:46;19.87;;;2.95;;
49384;SDS011;36795;45.028;38.968;2023-07-08T11:08:38;18.42;;;3.17;;
49384;SDS011;36795;45.028;38.968;2023-07-08T11:11:18;9.68;;;2.53;;
49384;SDS011;36795;45.028;38.968;2023-07-08T11:14:42;13.35;;;3.30;;
49384;SDS011;36795;45.028;38.968;2023-07-08T11:17:40;14.65;;;3.40;;
49384;SDS011;36795;45.028;38.968;2023-07-08T11:20:46;25.30;;;4.00;;
49384;SDS011;36795;45.028;38.968;2023-07-08T11:27:20;21.87;;;3.62;;
49384;SDS011;36795;45.028;38.968;2023-07-08T11:30:23;27.90;;;4.97;;
49384;SDS011;36795;45.028;38.968;2023-07-08T11:33:12;26.05;;;5.55;;
49384;SDS011;36795;45.028;38.968;2023-07-08T11:36:00;24.48;;;5.60;;
49384;SDS011;36795;45.028;38.968;2023-07-08T11:38:49;27.65;;;6.10;;
49384;SDS011;36795;45.028;38.968;2023-07-08T11:41:39;30.08;;;5.62;;
49384;SDS011;36795;45.028;38.968;2023-07-08T11:44:25;36.08;;;6.32;;
49384;SDS011;36795;45.028;38.968;2023-07-08T11:47:13;23.73;;;5.62;;
49384;SDS011;36795;45.028;38.968;2023-07-08T11:50:28;22.23;;;4.85;;
49384;SDS011;36795;45.028;38.968;2023-07-08T11:59:11;19.08;;;4.15;;
49384;SDS011;36795;45.028;38.968;2023-07-08T12:02:13;14.10;;;3.50;;
49384;SDS011;36795;45.028;38.968;2023-07-08T12:05:12;16.65;;;4.20;;
49384;SDS011;36795;45.028;38.968;2023-07-08T12:07:59;16.08;;;3.83;;
49384;SDS011;36795;45.028;38.968;2023-07-08T12:10:52;15.68;;;3.80;;
49384;SDS011;36795;45.028;38.968;2023-07-08T12:13:38;25.90;;;7.60;;
49384;SDS011;36795;45.028;38.968;2023-07-08T12:16:25;15.35;;;3.85;;
49384;SDS011;36795;45.028;38.968;2023-07-08T12:19:14;15.13;;;4.53;;
49384;SDS011;36795;45.028;38.968;2023-07-08T12:22:03;16.20;;;5.00;;
49384;SDS011;36795;45.028;38.968;2023-07-08T12:24:49;19.20;;;4.75;;
49384;SDS011;36795;45.028;38.968;2023-07-08T12:27:36;16.98;;;4.57;;
49384;SDS011;36795;45.028;38.968;2023-07-08T12:30:22;21.62;;;6.28;;
49384;SDS011;36795;45.028;38.968;2023-07-08T12:33:11;16.35;;;4.32;;
49384;SDS011;36795;45.028;38.968;2023-07-08T12:36:01;16.58;;;3.85;;
49384;SDS011;36795;45.028;38.968;2023-07-08T12:38:49;14.32;;;4.18;;
49384;SDS011;36795;45.028;38.968;2023-07-08T12:41:36;22.48;;;9.50;;
49384;SDS011;36795;45.028;38.968;2023-07-08T12:44:23;19.27;;;7.20;;
49384;SDS011;36795;45.028;38.968;2023-07-08T12:47:11;16.33;;;5.57;;
49384;SDS011;36795;45.028;38.968;2023-07-08T12:49:57;18.95;;;5.00;;
49384;SDS011;36795;45.028;38.968;2023-07-08T12:52:44;15.80;;;4.18;;
49384;SDS011;36795;45.028;38.968;2023-07-08T12:55:31;14.70;;;4.05;;
49384;SDS011;36795;45.028;38.968;2023-07-08T12:58:21;19.62;;;4.80;;
49384;SDS011;36795;45.028;38.968;2023-07-08T13:01:15;16.33;;;4.12;;
49384;SDS011;36795;45.028;38.968;2023-07-08T13:04:05;18.70;;;4.37;;
49384;SDS011;36795;45.028;38.968;2023-07-08T13:06:55;13.85;;;3.42;;
49384;SDS011;36795;45.028;38.968;2023-07-08T13:09:44;14.18;;;3.60;;
49384;SDS011;36795;45.028;38.968;2023-07-08T13:12:34;14.77;;;3.30;;
49384;SDS011;36795;45.028;38.968;2023-07-08T13:15:23;13.15;;;3.33;;
49384;SDS011;36795;45.028;38.968;2023-07-08T13:18:19;16.25;;;3.05;;
49384;SDS011;36795;45.028;38.968;2023-07-08T13:21:10;15.68;;;3.40;;
49384;SDS011;36795;45.028;38.968;2023-07-08T13:24:00;17.30;;;3.47;;
49384;SDS011;36795;45.028;38.968;2023-07-08T13:26:47;17.42;;;3.37;;
49384;SDS011;36795;45.028;38.968;2023-07-08T13:29:34;19.70;;;4.05;;
49384;SDS011;36795;45.028;38.968;2023-07-08T13:32:20;21.05;;;4.62;;
49384;SDS011;36795;45.028;38.968;2023-07-08T13:35:27;22.23;;;4.10;;
49384;SDS011;36795;45.028;38.968;2023-07-08T13:38:22;13.30;;;3.50;;
49384;SDS011;36795;45.028;38.968;2023-07-08T13:41:10;13.02;;;2.90;;
49384;SDS011;36795;45.028;38.968;2023-07-08T13:44:05;10.18;;;2.60;;
49384;SDS011;36795;45.028;38.968;2023-07-08T13:46:53;10.45;;;2.95;;
49384;SDS011;36795;45.028;38.968;2023-07-08T13:49:44;5.75;;;2.20;;
49384;SDS011;36795;45.028;38.968;2023-07-08T13:52:31;8.00;;;2.30;;
49384;SDS011;36795;45.028;38.968;2023-07-08T13:55:17;7.57;;;2.37;;
49384;SDS011;36795;45.028;38.968;2023-07-08T13:58:04;10.57;;;2.60;;
49384;SDS011;36795;45.028;38.968;2023-07-08T14:00:56;6.72;;;2.30;;
49384;SDS011;36795;45.028;38.968;2023-07-08T14:03:43;11.20;;;2.70;;
49384;SDS011;36795;45.028;38.968;2023-07-08T14:06:33;11.10;;;2.40;;
49384;SDS011;36795;45.028;38.968;2023-07-08T14:09:21;11.15;;;2.70;;
49384;SDS011;36795;45.028;38.968;2023-07-08T14:12:08;5.15;;;2.10;;
49384;SDS011;36795;45.028;38.968;2023-07-08T14:14:54;7.53;;;2.12;;
49384;SDS011;36795;45.028;38.968;2023-07-08T14:17:40;10.38;;;2.62;;
49384;SDS011;36795;45.028;38.968;2023-07-08T14:20:26;10.57;;;2.50;;
49384;SDS011;36795;45.028;38.968;2023-07-08T14:23:14;8.80;;;2.83;;
49384;SDS011;36795;45.028;38.968;2023-07-08T14:26:00;12.88;;;2.87;;
49384;SDS011;36795;45.028;38.968;2023-07-08T14:28:46;10.25;;;3.25;;
49384;SDS011;36795;45.028;38.968;2023-07-08T14:31:32;8.70;;;2.87;;
49384;SDS011;36795;45.028;38.968;2023-07-08T14:34:22;13.23;;;3.35;;
49384;SDS011;36795;45.028;38.968;2023-07-08T14:37:14;7.62;;;2.67;;
49384;SDS011;36795;45.028;38.968;2023-07-08T14:40:10;8.48;;;2.37;;
49384;SDS011;36795;45.028;38.968;2023-07-08T14:43:17;9.15;;;2.78;;
49384;SDS011;36795;45.028;38.968;2023-07-08T14:46:08;11.35;;;3.28;;
49384;SDS011;36795;45.028;38.968;2023-07-08T14:48:56;13.75;;;3.85;;
49384;SDS011;36795;45.028;38.968;2023-07-08T14:51:42;13.07;;;3.80;;
49384;SDS011;36795;45.028;38.968;2023-07-08T14:54:28;9.88;;;3.30;;
49384;SDS011;36795;45.028;38.968;2023-07-08T14:57:15;10.40;;;3.05;;
49384;SDS011;36795;45.028;38.968;2023-07-08T15:00:03;7.97;;;3.05;;
49384;SDS011;36795;45.028;38.968;2023-07-08T15:02:50;10.40;;;2.90;;
49384;SDS011;36795;45.028;38.968;2023-07-08T15:05:37;12.65;;;3.40;;
49384;SDS011;36795;45.028;38.968;2023-07-08T15:08:24;17.02;;;4.45;;
49384;SDS011;36795;45.028;38.968;2023-07-08T15:11:10;13.00;;;3.20;;
49384;SDS011;36795;45.028;38.968;2023-07-08T15:13:57;9.93;;;3.03;;
49384;SDS011;36795;45.028;38.968;2023-07-08T15:16:44;14.13;;;3.35;;
49384;SDS011;36795;45.028;38.968;2023-07-08T15:19:30;11.27;;;3.00;;
49384;SDS011;36795;45.028;38.968;2023-07-08T15:22:18;10.32;;;3.03;;
49384;SDS011;36795;45.028;38.968;2023-07-08T15:25:05;9.45;;;3.08;;
49384;SDS011;36795;45.028;38.968;2023-07-08T15:27:53;13.00;;;3.37;;
49384;SDS011;36795;45.028;38.968;2023-07-08T15:30:41;12.88;;;3.60;;
49384;SDS011;36795;45.028;38.968;2023-07-08T15:33:27;15.45;;;3.80;;
49384;SDS011;36795;45.028;38.968;2023-07-08T15:36:13;16.23;;;3.70;;
49384;SDS011;36795;45.028;38.968;2023-07-08T15:39:00;10.50;;;3.10;;
49384;SDS011;36795;45.028;38.968;2023-07-08T15:41:46;10.05;;;3.00;;
49384;SDS011;36795;45.028;38.968;2023-07-08T15:44:32;13.48;;;3.70;;
49384;SDS011;36795;45.028;38.968;2023-07-08T15:47:18;14.73;;;3.70;;
49384;SDS011;36795;45.028;38.968;2023-07-08T15:50:11;12.73;;;3.67;;
49384;SDS011;36795;45.028;38.968;2023-07-08T15:52:59;15.20;;;3.75;;
49384;SDS011;36795;45.028;38.968;2023-07-08T15:55:45;15.68;;;3.33;;
49384;SDS011;36795;45.028;38.968;2023-07-08T15:58:32;11.63;;;3.50;;
49384;SDS011;36795;45.028;38.968;2023-07-08T16:01:20;12.70;;;3.20;;
49384;SDS011;36795;45.028;38.968;2023-07-08T16:04:31;10.43;;;3.10;;
49384;SDS011;36795;45.028;38.968;2023-07-08T16:07:17;14.55;;;3.62;;
49384;SDS011;36795;45.028;38.968;2023-07-08T16:10:04;12.75;;;3.40;;
49384;SDS011;36795;45.028;38.968;2023-07-08T16:12:50;14.55;;;3.60;;
49384;SDS011;36795;45.028;38.968;2023-07-08T16:15:39;19.02;;;3.90;;
49384;SDS011;36795;45.028;38.968;2023-07-08T16:18:25;8.38;;;3.33;;
49384;SDS011;36795;45.028;38.968;2023-07-08T16:21:11;18.17;;;3.80;;
49384;SDS011;36795;45.028;38.968;2023-07-08T16:23:57;11.93;;;3.33;;
49384;SDS011;36795;45.028;38.968;2023-07-08T16:26:43;15.27;;;3.90;;
49384;SDS011;36795;45.028;38.968;2023-07-08T16:29:29;13.02;;;3.95;;
49384;SDS011;36795;45.028;38.968;2023-07-08T16:32:16;16.95;;;4.03;;
49384;SDS011;36795;45.028;38.968;2023-07-08T16:35:02;21.35;;;4.28;;
49384;SDS011;36795;45.028;38.968;2023-07-08T16:37:49;13.43;;;4.20;;
49384;SDS011;36795;45.028;38.968;2023-07-08T16:40:36;14.50;;;3.75;;
49384;SDS011;36795;45.028;38.968;2023-07-08T16:43:27;17.00;;;3.85;;
49384;SDS011;36795;45.028;38.968;2023-07-08T16:46:16;18.73;;;4.07;;
49384;SDS011;36795;45.028;38.968;2023-07-08T16:49:03;12.77;;;3.33;;
49384;SDS011;36795;45.028;38.968;2023-07-08T16:51:49;16.75;;;3.53;;
49384;SDS011;36795;45.028;38.968;2023-07-08T16:54:35;16.92;;;3.72;;
49384;SDS011;36795;45.028;38.968;2023-07-08T16:57:21;13.40;;;3.22;;
49384;SDS011;36795;45.028;38.968;2023-07-08T17:00:11;12.88;;;3.83;;
49384;SDS011;36795;45.028;38.968;2023-07-08T17:02:59;14.00;;;3.60;;
49384;SDS011;36795;45.028;38.968;2023-07-08T17:05:45;15.15;;;3.78;;
49384;SDS011;36795;45.028;38.968;2023-07-08T17:08:31;17.70;;;3.78;;
49384;SDS011;36795;45.028;38.968;2023-07-08T17:11:17;19.08;;;4.93;;
49384;SDS011;36795;45.028;38.968;2023-07-08T17:14:04;18.60;;;4.12;;